createdAt,value
2017-04-09T00:01:10.830Z,1019.74
2017-04-09T00:02:10.565Z,1019.73
2017-04-09T00:03:10.503Z,1019.74
2017-04-09T00:04:10.440Z,1019.74
2017-04-09T00:05:10.377Z,1019.74
2017-04-09T00:06:10.313Z,1019.77
2017-04-09T00:07:10.252Z,1019.78
2017-04-09T00:08:10.188Z,1019.81
2017-04-09T00:09:10.127Z,1019.79
2017-04-09T00:10:10.064Z,1019.75
2017-04-09T00:11:10.000Z,1019.75
2017-04-09T00:12:09.937Z,1019.76
2017-04-09T00:13:09.875Z,1019.73
2017-04-09T00:14:09.813Z,1019.75
2017-04-09T00:15:09.750Z,1019.77
2017-04-09T00:16:09.688Z,1019.75
2017-04-09T00:17:09.625Z,1019.76
2017-04-09T00:18:09.564Z,1019.74
2017-04-09T00:19:09.499Z,1019.73
2017-04-09T00:20:09.438Z,1019.76
2017-04-09T00:21:09.375Z,1019.72
2017-04-09T00:22:09.312Z,1019.75
2017-04-09T00:23:09.250Z,1019.78
2017-04-09T00:24:09.188Z,1019.76
2017-04-09T00:25:09.125Z,1019.77
2017-04-09T00:26:09.062Z,1019.8
2017-04-09T00:27:08.998Z,1019.76
2017-04-09T00:28:08.937Z,1019.76
2017-04-09T00:29:08.874Z,1019.79
2017-04-09T00:30:08.810Z,1019.8
2017-04-09T00:31:08.750Z,1019.8
2017-04-09T00:32:08.688Z,1019.77
2017-04-09T00:33:08.624Z,1019.78
2017-04-09T00:34:08.562Z,1019.75
2017-04-09T00:35:08.501Z,1019.76
2017-04-09T00:36:08.438Z,1019.76
2017-04-09T00:37:08.374Z,1019.79
2017-04-09T00:38:08.312Z,1019.81
2017-04-09T00:39:08.248Z,1019.78
2017-04-09T00:40:08.187Z,1019.77
2017-04-09T00:41:08.123Z,1019.77
2017-04-09T00:42:08.061Z,1019.79
2017-04-09T00:43:07.998Z,1019.85
2017-04-09T00:44:07.935Z,1019.84
2017-04-09T00:45:07.872Z,1019.81
2017-04-09T00:46:07.810Z,1019.83
2017-04-09T00:47:07.748Z,1019.83
2017-04-09T00:48:07.684Z,1019.85
2017-04-09T00:49:07.622Z,1019.85
2017-04-09T00:50:07.561Z,1019.84
2017-04-09T00:51:07.497Z,1019.83
2017-04-09T00:52:07.434Z,1019.83
2017-04-09T00:53:07.372Z,1019.85
2017-04-09T00:54:07.310Z,1019.89
2017-04-09T00:55:07.246Z,1019.87
2017-04-09T00:56:07.184Z,1019.86
2017-04-09T00:57:07.121Z,1019.82
2017-04-09T00:58:07.060Z,1019.86
2017-04-09T00:59:06.996Z,1019.83
2017-04-09T01:00:06.933Z,1019.84
2017-04-09T01:01:06.876Z,1019.84
2017-04-09T01:02:06.809Z,1019.86
2017-04-09T01:03:06.745Z,1019.82
2017-04-09T01:04:06.683Z,1019.82
2017-04-09T01:05:06.622Z,1019.84
2017-04-09T01:06:06.559Z,1019.85
2017-04-09T01:07:06.496Z,1019.8
2017-04-09T01:08:06.434Z,1019.8
2017-04-09T01:09:06.375Z,1019.81
2017-04-09T01:10:06.307Z,1019.83
2017-04-09T01:11:06.245Z,1019.82
2017-04-09T01:12:06.183Z,1019.81
2017-04-09T01:13:06.121Z,1019.83
2017-04-09T01:14:06.059Z,1019.82
2017-04-09T01:15:05.997Z,1019.83
2017-04-09T01:16:05.933Z,1019.83
2017-04-09T01:17:05.871Z,1019.82
2017-04-09T01:18:05.807Z,1019.83
2017-04-09T01:19:05.744Z,1019.84
2017-04-09T01:20:05.682Z,1019.86
2017-04-09T01:21:05.620Z,1019.86
2017-04-09T01:22:05.556Z,1019.85
2017-04-09T01:23:05.495Z,1019.84
2017-04-09T01:24:05.433Z,1019.84
2017-04-09T01:25:05.369Z,1019.85
2017-04-09T01:26:05.306Z,1019.82
2017-04-09T01:27:05.243Z,1019.82
2017-04-09T01:28:05.185Z,1019.83
2017-04-09T01:29:05.120Z,1019.82
2017-04-09T01:30:05.055Z,1019.82
2017-04-09T01:31:04.993Z,1019.8
2017-04-09T01:32:04.931Z,1019.82
2017-04-09T01:33:04.868Z,1019.82
2017-04-09T01:34:04.805Z,1019.82
2017-04-09T01:35:04.744Z,1019.83
2017-04-09T01:36:04.682Z,1019.82
2017-04-09T01:37:04.619Z,1019.79
2017-04-09T01:38:04.556Z,1019.81
2017-04-09T01:39:04.494Z,1019.82
2017-04-09T01:40:04.431Z,1019.83
2017-04-09T01:41:04.370Z,1019.82
2017-04-09T01:42:04.307Z,1019.8
2017-04-09T01:43:04.244Z,1019.79
2017-04-09T01:44:04.186Z,1019.77
2017-04-09T01:45:04.119Z,1019.78
2017-04-09T01:46:04.056Z,1019.78
2017-04-09T01:47:03.994Z,1019.78
2017-04-09T01:48:03.935Z,1019.79
2017-04-09T01:49:03.869Z,1019.78
2017-04-09T01:50:03.804Z,1019.78
2017-04-09T01:51:03.743Z,1019.78
2017-04-09T01:52:03.681Z,1019.8
2017-04-09T01:53:03.617Z,1019.75
2017-04-09T01:54:03.557Z,1019.8
2017-04-09T01:55:03.492Z,1019.8
2017-04-09T01:56:03.429Z,1019.81
2017-04-09T01:57:03.366Z,1019.83
2017-04-09T01:58:03.305Z,1019.8
2017-04-09T01:59:03.242Z,1019.81
2017-04-09T02:00:03.180Z,1019.79
2017-04-09T02:01:03.115Z,1019.78
2017-04-09T02:02:03.055Z,1019.81
2017-04-09T02:03:02.991Z,1019.78
2017-04-09T02:04:02.931Z,1019.78
2017-04-09T02:05:02.867Z,1019.83
2017-04-09T02:06:02.802Z,1019.81
2017-04-09T02:07:02.741Z,1019.84
2017-04-09T02:08:02.677Z,1019.84
2017-04-09T02:09:02.616Z,1019.85
2017-04-09T02:10:02.555Z,1019.83
2017-04-09T02:11:02.493Z,1019.82
2017-04-09T02:12:02.428Z,1019.82
2017-04-09T02:13:02.366Z,1019.82
2017-04-09T02:14:02.302Z,1019.81
2017-04-09T02:15:02.240Z,1019.82
2017-04-09T02:16:02.177Z,1019.84
2017-04-09T02:17:02.117Z,1019.81
2017-04-09T02:18:02.052Z,1019.82
2017-04-09T02:19:01.989Z,1019.83
2017-04-09T02:20:01.928Z,1019.84
2017-04-09T02:21:01.864Z,1019.84
2017-04-09T02:22:01.810Z,1019.83
2017-04-09T02:23:01.739Z,1019.83
2017-04-09T02:24:01.677Z,1019.81
2017-04-09T02:25:01.615Z,1019.82
2017-04-09T02:26:01.552Z,1019.82
2017-04-09T02:27:01.490Z,1019.86
2017-04-09T02:28:01.426Z,1019.81
2017-04-09T02:29:01.365Z,1019.82
2017-04-09T02:30:01.301Z,1019.83
2017-04-09T02:31:01.239Z,1019.84
2017-04-09T02:32:01.177Z,1019.84
2017-04-09T02:33:01.118Z,1019.82
2017-04-09T02:34:01.052Z,1019.79
2017-04-09T02:35:00.989Z,1019.8
2017-04-09T02:36:00.927Z,1019.79
2017-04-09T02:37:00.867Z,1019.78
2017-04-09T02:38:00.801Z,1019.76
2017-04-09T02:39:00.737Z,1019.8
2017-04-09T02:40:00.675Z,1019.8
2017-04-09T02:41:00.612Z,1019.8
2017-04-09T02:42:00.549Z,1019.83
2017-04-09T02:43:00.490Z,1019.79
2017-04-09T02:44:00.424Z,1019.81
2017-04-09T02:45:00.362Z,1019.79
2017-04-09T02:46:00.300Z,1019.77
2017-04-09T02:47:00.238Z,1019.77
2017-04-09T02:48:00.175Z,1019.78
2017-04-09T02:49:00.111Z,1019.81
2017-04-09T02:50:00.048Z,1019.82
2017-04-09T02:50:59.988Z,1019.81
2017-04-09T02:51:59.924Z,1019.84
2017-04-09T02:52:59.861Z,1019.85
2017-04-09T02:53:59.798Z,1019.85
2017-04-09T02:54:59.736Z,1019.83
2017-04-09T02:55:59.674Z,1019.84
2017-04-09T02:56:59.610Z,1019.85
2017-04-09T02:57:59.549Z,1019.82
2017-04-09T02:58:59.485Z,1019.84
2017-04-09T02:59:59.423Z,1019.83
2017-04-09T03:00:59.361Z,1019.83
2017-04-09T03:01:59.298Z,1019.83
2017-04-09T03:02:59.236Z,1019.82
2017-04-09T03:03:59.174Z,1019.83
2017-04-09T03:04:59.111Z,1019.83
2017-04-09T03:05:59.047Z,1019.8
2017-04-09T03:06:58.986Z,1019.77
2017-04-09T03:07:58.923Z,1019.79
2017-04-09T03:08:58.860Z,1019.76
2017-04-09T03:09:58.797Z,1019.81
2017-04-09T03:10:58.739Z,1019.79
2017-04-09T03:11:58.673Z,1019.77
2017-04-09T03:12:58.610Z,1019.78
2017-04-09T03:13:58.548Z,1019.75
2017-04-09T03:14:58.486Z,1019.77
2017-04-09T03:15:58.424Z,1019.75
2017-04-09T03:16:58.362Z,1019.74
2017-04-09T03:17:58.298Z,1019.76
2017-04-09T03:18:58.236Z,1019.73
2017-04-09T03:19:58.172Z,1019.72
2017-04-09T03:20:58.108Z,1019.7
2017-04-09T03:21:58.047Z,1019.76
2017-04-09T03:22:57.985Z,1019.69
2017-04-09T03:23:57.934Z,1019.7
2017-04-09T03:24:57.858Z,1019.72
2017-04-09T03:25:57.796Z,1019.73
2017-04-09T03:26:57.735Z,1019.7
2017-04-09T03:27:57.672Z,1019.72
2017-04-09T03:28:57.609Z,1019.71
2017-04-09T03:29:57.547Z,1019.7
2017-04-09T03:30:57.484Z,1019.74
2017-04-09T03:31:57.421Z,1019.72
2017-04-09T03:32:57.359Z,1019.7
2017-04-09T03:33:57.297Z,1019.69
2017-04-09T03:34:57.235Z,1019.7
2017-04-09T03:35:57.170Z,1019.7
2017-04-09T03:36:57.107Z,1019.72
2017-04-09T03:37:57.046Z,1019.71
2017-04-09T03:38:56.983Z,1019.71
2017-04-09T03:39:56.920Z,1019.74
2017-04-09T03:40:56.858Z,1019.74
2017-04-09T03:41:56.795Z,1019.74
2017-04-09T03:42:56.732Z,1019.76
2017-04-09T03:43:56.669Z,1019.76
2017-04-09T03:44:56.606Z,1019.75
2017-04-09T03:45:56.544Z,1019.76
2017-04-09T03:46:56.481Z,1019.72
2017-04-09T03:47:56.418Z,1019.73
2017-04-09T03:48:56.359Z,1019.72
2017-04-09T03:49:56.293Z,1019.73
2017-04-09T03:50:56.230Z,1019.75
2017-04-09T03:51:56.169Z,1019.75
2017-04-09T03:52:56.108Z,1019.73
2017-04-09T03:53:56.043Z,1019.71
2017-04-09T03:54:55.981Z,1019.73
2017-04-09T03:55:55.918Z,1019.73
2017-04-09T03:56:55.859Z,1019.73
2017-04-09T03:57:55.793Z,1019.72
2017-04-09T03:58:55.729Z,1019.77
2017-04-09T03:59:55.667Z,1019.76
2017-04-09T04:00:55.606Z,1019.77
2017-04-09T04:01:55.545Z,1019.77
2017-04-09T04:02:55.480Z,1019.76
2017-04-09T04:03:55.418Z,1019.77
2017-04-09T04:04:55.356Z,1019.7
2017-04-09T04:05:55.292Z,1019.75
2017-04-09T04:06:55.229Z,1019.74
2017-04-09T04:07:55.167Z,1019.72
2017-04-09T04:08:55.104Z,1019.72
2017-04-09T04:09:55.042Z,1019.69
2017-04-09T04:10:54.980Z,1019.7
2017-04-09T04:11:54.918Z,1019.7
2017-04-09T04:12:54.853Z,1019.72
2017-04-09T04:13:54.791Z,1019.73
2017-04-09T04:14:54.729Z,1019.74
2017-04-09T04:15:54.665Z,1019.76
2017-04-09T04:16:54.602Z,1019.76
2017-04-09T04:17:54.539Z,1019.8
2017-04-09T04:18:54.479Z,1019.77
2017-04-09T04:19:54.415Z,1019.78
2017-04-09T04:20:54.353Z,1019.8
2017-04-09T04:21:54.291Z,1019.78
2017-04-09T04:22:54.229Z,1019.77
2017-04-09T04:23:54.164Z,1019.76
2017-04-09T04:24:54.102Z,1019.74
2017-04-09T04:25:54.050Z,1019.78
2017-04-09T04:26:53.976Z,1019.76
2017-04-09T04:27:53.914Z,1019.76
2017-04-09T04:28:53.852Z,1019.76
2017-04-09T04:29:53.788Z,1019.77
2017-04-09T04:30:53.725Z,1019.75
2017-04-09T04:31:53.663Z,1019.75
2017-04-09T04:32:53.601Z,1019.74
2017-04-09T04:33:53.539Z,1019.79
2017-04-09T04:34:53.476Z,1019.75
2017-04-09T04:35:53.414Z,1019.78
2017-04-09T04:36:53.351Z,1019.81
2017-04-09T04:37:53.288Z,1019.8
2017-04-09T04:38:53.224Z,1019.79
2017-04-09T04:39:53.162Z,1019.81
2017-04-09T04:40:53.101Z,1019.84
2017-04-09T04:41:53.069Z,1019.85
2017-04-09T04:42:52.976Z,1019.85
2017-04-09T04:43:52.913Z,1019.87
2017-04-09T04:44:52.850Z,1019.88
2017-04-09T04:45:52.787Z,1019.86
2017-04-09T04:46:52.726Z,1019.83
2017-04-09T04:47:52.664Z,1019.88
2017-04-09T04:48:52.598Z,1019.87
2017-04-09T04:49:52.537Z,1019.86
2017-04-09T04:50:52.475Z,1019.87
2017-04-09T04:51:52.414Z,1019.89
2017-04-09T04:52:52.350Z,1019.88
2017-04-09T04:53:52.288Z,1019.88
2017-04-09T04:54:52.224Z,1019.9
2017-04-09T04:55:52.162Z,1019.87
2017-04-09T04:56:52.099Z,1019.89
2017-04-09T04:57:52.039Z,1019.93
2017-04-09T04:58:51.975Z,1019.91
2017-04-09T04:59:51.911Z,1019.92
2017-04-09T05:00:51.849Z,1019.94
2017-04-09T05:01:51.787Z,1019.96
2017-04-09T05:02:51.724Z,1019.98
2017-04-09T05:03:51.661Z,1019.97
2017-04-09T05:04:51.598Z,1019.98
2017-04-09T05:05:51.536Z,1019.97
2017-04-09T05:06:51.472Z,1020
2017-04-09T05:07:51.409Z,1019.99
2017-04-09T05:08:51.348Z,1020.03
2017-04-09T05:09:51.286Z,1020.03
2017-04-09T05:10:51.371Z,1020.01
2017-04-09T05:11:51.160Z,1020.02
2017-04-09T05:12:51.096Z,1020.02
2017-04-09T05:13:51.035Z,1020.03
2017-04-09T05:14:50.972Z,1020.03
2017-04-09T05:15:50.910Z,1020.04
2017-04-09T05:16:50.847Z,1020.04
2017-04-09T05:17:50.784Z,1020.05
2017-04-09T05:18:50.721Z,1020.05
2017-04-09T05:19:50.659Z,1020.03
2017-04-09T05:20:50.597Z,1020.02
2017-04-09T05:21:50.534Z,1020.05
2017-04-09T05:22:50.470Z,1020.06
2017-04-09T05:23:50.409Z,1020.03
2017-04-09T05:24:50.346Z,1020.04
2017-04-09T05:25:50.283Z,1020.04
2017-04-09T05:26:50.221Z,1020.02
2017-04-09T05:27:50.159Z,1020.02
2017-04-09T05:28:50.093Z,1020.06
2017-04-09T05:29:50.052Z,1020.04
2017-04-09T05:30:49.970Z,1020.04
2017-04-09T05:31:49.908Z,1020.07
2017-04-09T05:32:49.844Z,1020.06
2017-04-09T05:33:49.781Z,1020.06
2017-04-09T05:34:49.723Z,1020.08
2017-04-09T05:35:49.657Z,1020.06
2017-04-09T05:36:49.594Z,1020.1
2017-04-09T05:37:49.531Z,1020.06
2017-04-09T05:38:49.470Z,1020.13
2017-04-09T05:39:49.405Z,1020.07
2017-04-09T05:40:49.345Z,1020.1
2017-04-09T05:41:49.282Z,1020.12
2017-04-09T05:42:49.220Z,1020.09
2017-04-09T05:43:49.155Z,1020.11
2017-04-09T05:44:49.092Z,1020.1
2017-04-09T05:45:49.029Z,1020.1
2017-04-09T05:46:48.968Z,1020.1
2017-04-09T05:47:48.905Z,1020.08
2017-04-09T05:48:48.843Z,1020.08
2017-04-09T05:49:48.781Z,1020.13
2017-04-09T05:50:48.716Z,1020.11
2017-04-09T05:51:48.654Z,1020.12
2017-04-09T05:52:48.592Z,1020.1
2017-04-09T05:53:48.529Z,1020.14
2017-04-09T05:54:48.466Z,1020.15
2017-04-09T05:55:48.403Z,1020.19
2017-04-09T05:56:48.342Z,1020.21
2017-04-09T05:57:48.280Z,1020.21
2017-04-09T05:58:48.215Z,1020.2
2017-04-09T05:59:48.154Z,1020.28
2017-04-09T06:00:48.091Z,1020.21
2017-04-09T06:01:48.030Z,1020.22
2017-04-09T06:02:47.966Z,1020.2
2017-04-09T06:03:47.903Z,1020.18
2017-04-09T06:04:47.841Z,1020.19
2017-04-09T06:05:47.778Z,1020.16
2017-04-09T06:06:47.714Z,1020.12
2017-04-09T06:07:47.653Z,1020.12
2017-04-09T06:08:47.590Z,1020.16
2017-04-09T06:09:47.528Z,1020.16
2017-04-09T06:10:47.465Z,1020.19
2017-04-09T06:11:47.403Z,1020.2
2017-04-09T06:12:47.339Z,1020.19
2017-04-09T06:13:47.278Z,1020.27
2017-04-09T06:14:47.214Z,1020.27
2017-04-09T06:15:47.153Z,1020.24
2017-04-09T06:16:47.089Z,1020.27
2017-04-09T06:17:47.027Z,1020.25
2017-04-09T06:18:46.964Z,1020.29
2017-04-09T06:19:46.901Z,1020.25
2017-04-09T06:20:46.841Z,1020.26
2017-04-09T06:21:46.777Z,1020.25
2017-04-09T06:22:46.716Z,1020.26
2017-04-09T06:23:46.651Z,1020.25
2017-04-09T06:24:46.589Z,1020.22
2017-04-09T06:25:46.526Z,1020.24
2017-04-09T06:26:46.463Z,1020.26
2017-04-09T06:27:46.401Z,1020.23
2017-04-09T06:28:46.338Z,1020.29
2017-04-09T06:29:46.275Z,1020.26
2017-04-09T06:30:46.238Z,1020.27
2017-04-09T06:31:46.150Z,1020.28
2017-04-09T06:32:46.088Z,1020.27
2017-04-09T06:33:46.025Z,1020.27
2017-04-09T06:34:45.962Z,1020.27
2017-04-09T06:35:45.898Z,1020.3
2017-04-09T06:36:45.838Z,1020.29
2017-04-09T06:37:45.775Z,1020.29
2017-04-09T06:38:45.712Z,1020.3
2017-04-09T06:39:45.649Z,1020.3
2017-04-09T06:40:45.588Z,1020.32
2017-04-09T06:41:45.526Z,1020.34
2017-04-09T06:42:45.463Z,1020.32
2017-04-09T06:43:45.399Z,1020.35
2017-04-09T06:44:45.336Z,1020.42
2017-04-09T06:45:45.273Z,1020.35
2017-04-09T06:46:45.212Z,1020.44
2017-04-09T06:47:45.148Z,1020.42
2017-04-09T06:48:45.087Z,1020.41
2017-04-09T06:49:45.024Z,1020.4
2017-04-09T06:50:44.960Z,1020.41
2017-04-09T06:51:44.900Z,1020.41
2017-04-09T06:52:44.834Z,1020.41
2017-04-09T06:53:44.773Z,1020.43
2017-04-09T06:54:44.711Z,1020.41
2017-04-09T06:55:44.649Z,1020.38
2017-04-09T06:56:44.584Z,1020.44
2017-04-09T06:57:44.522Z,1020.44
2017-04-09T06:58:44.459Z,1020.4
2017-04-09T06:59:44.399Z,1020.45
2017-04-09T07:00:44.335Z,1020.43
2017-04-09T07:01:44.271Z,1020.41
2017-04-09T07:02:44.209Z,1020.44
2017-04-09T07:03:44.145Z,1020.45
2017-04-09T07:04:44.084Z,1020.49
2017-04-09T07:05:44.022Z,1020.48
2017-04-09T07:06:43.960Z,1020.49
2017-04-09T07:07:43.895Z,1020.5
2017-04-09T07:08:43.834Z,1020.53
2017-04-09T07:09:43.772Z,1020.54
2017-04-09T07:10:43.709Z,1020.54
2017-04-09T07:11:43.646Z,1020.57
2017-04-09T07:12:43.582Z,1020.54
2017-04-09T07:13:43.522Z,1020.57
2017-04-09T07:14:43.457Z,1020.59
2017-04-09T07:15:43.395Z,1020.57
2017-04-09T07:16:43.333Z,1020.59
2017-04-09T07:17:43.269Z,1020.55
2017-04-09T07:18:43.207Z,1020.62
2017-04-09T07:19:43.146Z,1020.58
2017-04-09T07:20:43.083Z,1020.58
2017-04-09T07:21:43.021Z,1020.59
2017-04-09T07:22:42.961Z,1020.61
2017-04-09T07:23:42.895Z,1020.61
2017-04-09T07:24:42.833Z,1020.58
2017-04-09T07:25:42.769Z,1020.6
2017-04-09T07:26:42.706Z,1020.57
2017-04-09T07:27:42.645Z,1020.59
2017-04-09T07:28:42.583Z,1020.59
2017-04-09T07:29:42.519Z,1020.61
2017-04-09T07:30:42.470Z,1020.62
2017-04-09T07:31:42.393Z,1020.59
2017-04-09T07:32:42.332Z,1020.59
2017-04-09T07:33:42.268Z,1020.57
2017-04-09T07:34:42.205Z,1020.58
2017-04-09T07:35:42.143Z,1020.58
2017-04-09T07:36:42.081Z,1020.55
2017-04-09T07:37:42.018Z,1020.53
2017-04-09T07:38:41.955Z,1020.53
2017-04-09T07:39:41.892Z,1020.52
2017-04-09T07:40:41.830Z,1020.58
2017-04-09T07:41:41.767Z,1020.55
2017-04-09T07:42:41.705Z,1020.61
2017-04-09T07:43:41.644Z,1020.61
2017-04-09T07:44:41.581Z,1020.65
2017-04-09T07:45:41.517Z,1020.65
2017-04-09T07:46:41.454Z,1020.64
2017-04-09T07:47:41.393Z,1020.64
2017-04-09T07:48:41.330Z,1020.65
2017-04-09T07:49:41.268Z,1020.63
2017-04-09T07:50:41.204Z,1020.6
2017-04-09T07:51:41.142Z,1020.62
2017-04-09T07:52:41.080Z,1020.64
2017-04-09T07:53:41.016Z,1020.67
2017-04-09T07:54:40.954Z,1020.63
2017-04-09T07:55:40.893Z,1020.62
2017-04-09T07:56:40.829Z,1020.66
2017-04-09T07:57:40.767Z,1020.63
2017-04-09T07:58:40.704Z,1020.62
2017-04-09T07:59:40.643Z,1020.63
2017-04-09T08:00:40.581Z,1020.63
2017-04-09T08:01:40.518Z,1020.65
2017-04-09T08:02:40.455Z,1020.66
2017-04-09T08:03:40.392Z,1020.68
2017-04-09T08:04:40.330Z,1020.69
2017-04-09T08:05:40.265Z,1020.71
2017-04-09T08:06:40.203Z,1020.72
2017-04-09T08:07:40.142Z,1020.68
2017-04-09T08:08:40.079Z,1020.67
2017-04-09T08:09:40.018Z,1020.67
2017-04-09T08:10:39.954Z,1020.67
2017-04-09T08:11:39.890Z,1020.65
2017-04-09T08:12:39.828Z,1020.67
2017-04-09T08:13:39.765Z,1020.65
2017-04-09T08:14:39.703Z,1020.68
2017-04-09T08:15:39.642Z,1020.67
2017-04-09T08:16:39.579Z,1020.66
2017-04-09T08:17:39.516Z,1020.64
2017-04-09T08:18:39.454Z,1020.63
2017-04-09T08:19:39.391Z,1020.67
2017-04-09T08:20:39.329Z,1020.65
2017-04-09T08:21:39.267Z,1020.66
2017-04-09T08:22:39.204Z,1020.69
2017-04-09T08:23:39.141Z,1020.7
2017-04-09T08:24:39.078Z,1020.69
2017-04-09T08:25:39.015Z,1020.73
2017-04-09T08:26:38.953Z,1020.72
2017-04-09T08:27:38.891Z,1020.75
2017-04-09T08:28:38.827Z,1020.72
2017-04-09T08:29:38.765Z,1020.7
2017-04-09T08:30:38.703Z,1020.71
2017-04-09T08:31:38.640Z,1020.7
2017-04-09T08:32:38.577Z,1020.71
2017-04-09T08:33:38.516Z,1020.72
2017-04-09T08:34:38.452Z,1020.75
2017-04-09T08:35:38.389Z,1020.75
2017-04-09T08:36:38.325Z,1020.7
2017-04-09T08:37:38.264Z,1020.69
2017-04-09T08:38:38.202Z,1020.7
2017-04-09T08:39:38.140Z,1020.69
2017-04-09T08:40:38.077Z,1020.68
2017-04-09T08:41:38.014Z,1020.65
2017-04-09T08:42:37.951Z,1020.67
2017-04-09T08:43:37.888Z,1020.67
2017-04-09T08:44:37.826Z,1020.66
2017-04-09T08:45:37.765Z,1020.67
2017-04-09T08:46:37.702Z,1020.71
2017-04-09T08:47:37.639Z,1020.67
2017-04-09T08:48:37.577Z,1020.72
2017-04-09T08:49:37.513Z,1020.73
2017-04-09T08:50:37.450Z,1020.72
2017-04-09T08:51:37.389Z,1020.73
2017-04-09T08:52:37.327Z,1020.69
2017-04-09T08:53:37.263Z,1020.71
2017-04-09T08:54:37.201Z,1020.7
2017-04-09T08:55:37.139Z,1020.66
2017-04-09T08:56:37.078Z,1020.66
2017-04-09T08:57:37.014Z,1020.66
2017-04-09T08:58:36.951Z,1020.68
2017-04-09T08:59:36.889Z,1020.68
2017-04-09T09:00:36.825Z,1020.68
2017-04-09T09:01:36.764Z,1020.67
2017-04-09T09:02:36.701Z,1020.66
2017-04-09T09:03:36.639Z,1020.7
2017-04-09T09:04:36.577Z,1020.72
2017-04-09T09:05:36.513Z,1020.65
2017-04-09T09:06:36.449Z,1020.66
2017-04-09T09:07:36.389Z,1020.71
2017-04-09T09:08:36.326Z,1020.7
2017-04-09T09:09:36.263Z,1020.7
2017-04-09T09:10:36.200Z,1020.66
2017-04-09T09:11:36.138Z,1020.66
2017-04-09T09:12:36.076Z,1020.66
2017-04-09T09:13:36.013Z,1020.67
2017-04-09T09:14:35.951Z,1020.71
2017-04-09T09:15:35.888Z,1020.68
2017-04-09T09:16:35.825Z,1020.67
2017-04-09T09:17:35.763Z,1020.66
2017-04-09T09:18:35.701Z,1020.67
2017-04-09T09:19:35.638Z,1020.67
2017-04-09T09:20:35.575Z,1020.71
2017-04-09T09:21:35.514Z,1020.67
2017-04-09T09:22:35.450Z,1020.66
2017-04-09T09:23:35.389Z,1020.64
2017-04-09T09:24:35.326Z,1020.64
2017-04-09T09:25:35.263Z,1020.67
2017-04-09T09:26:35.200Z,1020.63
2017-04-09T09:27:35.138Z,1020.66
2017-04-09T09:28:35.076Z,1020.66
2017-04-09T09:29:35.013Z,1020.68
2017-04-09T09:30:34.951Z,1020.63
2017-04-09T09:31:34.888Z,1020.65
2017-04-09T09:32:34.827Z,1020.63
2017-04-09T09:33:34.763Z,1020.58
2017-04-09T09:34:34.701Z,1020.6
2017-04-09T09:35:34.639Z,1020.61
2017-04-09T09:36:34.576Z,1020.6
2017-04-09T09:37:34.514Z,1020.58
2017-04-09T09:38:34.452Z,1020.54
2017-04-09T09:39:34.389Z,1020.56
2017-04-09T09:40:34.324Z,1020.51
2017-04-09T09:41:34.273Z,1020.48
2017-04-09T09:42:34.201Z,1020.49
2017-04-09T09:43:34.139Z,1020.52
2017-04-09T09:44:34.076Z,1020.51
2017-04-09T09:45:34.025Z,1020.48
2017-04-09T09:46:33.951Z,1020.48
2017-04-09T09:47:33.889Z,1020.47
2017-04-09T09:48:33.826Z,1020.45
2017-04-09T09:49:33.763Z,1020.46
2017-04-09T09:50:33.701Z,1020.47
2017-04-09T09:51:33.637Z,1020.44
2017-04-09T09:52:33.576Z,1020.46
2017-04-09T09:53:33.512Z,1020.49
2017-04-09T09:54:33.453Z,1020.46
2017-04-09T09:55:33.387Z,1020.42
2017-04-09T09:56:33.325Z,1020.41
2017-04-09T09:57:33.264Z,1020.4
2017-04-09T09:58:33.200Z,1020.38
2017-04-09T09:59:33.138Z,1020.4
2017-04-09T10:00:33.075Z,1020.36
2017-04-09T10:01:33.013Z,1020.37
2017-04-09T10:02:32.948Z,1020.39
2017-04-09T10:03:32.886Z,1020.33
2017-04-09T10:04:32.826Z,1020.31
2017-04-09T10:05:32.793Z,1020.32
2017-04-09T10:06:32.701Z,1020.32
2017-04-09T10:07:32.637Z,1020.33
2017-04-09T10:08:32.577Z,1020.34
2017-04-09T10:09:32.513Z,1020.35
2017-04-09T10:10:32.450Z,1020.34
2017-04-09T10:11:32.387Z,1020.3
2017-04-09T10:12:32.325Z,1020.26
2017-04-09T10:13:32.262Z,1020.27
2017-04-09T10:14:32.201Z,1020.32
2017-04-09T10:15:32.137Z,1020.29
2017-04-09T10:16:32.076Z,1020.29
2017-04-09T10:17:32.012Z,1020.27
2017-04-09T10:18:31.959Z,1020.33
2017-04-09T10:19:31.888Z,1020.26
2017-04-09T10:20:31.825Z,1020.27
2017-04-09T10:21:31.763Z,1020.25
2017-04-09T10:22:31.700Z,1020.24
2017-04-09T10:23:31.638Z,1020.24
2017-04-09T10:24:31.574Z,1020.27
2017-04-09T10:25:31.513Z,1020.22
2017-04-09T10:26:31.449Z,1020.24
2017-04-09T10:27:31.387Z,1020.25
2017-04-09T10:28:31.329Z,1020.21
2017-04-09T10:29:31.262Z,1020.16
2017-04-09T10:30:31.201Z,1020.18
2017-04-09T10:31:31.136Z,1020.18
2017-04-09T10:32:31.074Z,1020.2
2017-04-09T10:33:31.013Z,1020.19
2017-04-09T10:34:30.952Z,1020.21
2017-04-09T10:35:30.886Z,1020.15
2017-04-09T10:36:30.866Z,1020.15
2017-04-09T10:37:30.763Z,1020.18
2017-04-09T10:38:30.700Z,1020.12
2017-04-09T10:39:30.635Z,1020.13
2017-04-09T10:40:30.575Z,1020.14
2017-04-09T10:41:30.512Z,1020.12
2017-04-09T10:42:30.450Z,1020.14
2017-04-09T10:43:30.388Z,1020.12
2017-04-09T10:44:30.324Z,1020.11
2017-04-09T10:45:30.264Z,1020.11
2017-04-09T10:46:30.199Z,1020.11
2017-04-09T10:47:30.138Z,1020.09
2017-04-09T10:48:30.074Z,1020.13
2017-04-09T10:49:30.013Z,1020.13
2017-04-09T10:50:29.950Z,1020.11
2017-04-09T10:51:29.887Z,1020.11
2017-04-09T10:52:29.825Z,1020.08
2017-04-09T10:53:29.764Z,1020.1
2017-04-09T10:54:29.701Z,1020.09
2017-04-09T10:55:29.638Z,1020.08
2017-04-09T10:56:29.575Z,1020.06
2017-04-09T10:57:29.513Z,1020.09
2017-04-09T10:58:29.451Z,1020.04
2017-04-09T10:59:29.387Z,1020.1
2017-04-09T11:00:29.325Z,1020.11
2017-04-09T11:01:29.263Z,1020.1
2017-04-09T11:02:29.201Z,1020.05
2017-04-09T11:03:29.139Z,1020.02
2017-04-09T11:04:29.076Z,1019.98
2017-04-09T11:05:29.014Z,1020.01
2017-04-09T11:06:28.952Z,1020.02
2017-04-09T11:07:28.891Z,1020
2017-04-09T11:08:28.827Z,1019.96
2017-04-09T11:09:28.763Z,1019.94
2017-04-09T11:10:28.709Z,1019.94
2017-04-09T11:11:28.639Z,1019.95
2017-04-09T11:12:28.576Z,1019.95
2017-04-09T11:13:28.516Z,1019.93
2017-04-09T11:14:28.453Z,1019.94
2017-04-09T11:15:28.390Z,1019.93
2017-04-09T11:16:28.327Z,1019.97
2017-04-09T11:17:28.267Z,1019.95
2017-04-09T11:18:28.202Z,1019.94
2017-04-09T11:19:28.140Z,1019.96
2017-04-09T11:20:28.076Z,1019.94
2017-04-09T11:21:28.015Z,1019.95
2017-04-09T11:22:27.955Z,1019.93
2017-04-09T11:23:27.891Z,1019.94
2017-04-09T11:24:27.833Z,1019.9
2017-04-09T11:25:27.766Z,1019.84
2017-04-09T11:26:27.703Z,1019.88
2017-04-09T11:27:27.640Z,1019.9
2017-04-09T11:28:27.578Z,1019.87
2017-04-09T11:29:27.515Z,1019.87
2017-04-09T11:30:27.452Z,1019.86
2017-04-09T11:31:27.392Z,1019.86
2017-04-09T11:32:27.330Z,1019.84
2017-04-09T11:33:27.269Z,1019.84
2017-04-09T11:34:27.211Z,1019.83
2017-04-09T11:35:27.143Z,1019.79
2017-04-09T11:36:27.079Z,1019.78
2017-04-09T11:37:27.016Z,1019.75
2017-04-09T11:38:26.953Z,1019.77
2017-04-09T11:39:26.891Z,1019.76
2017-04-09T11:40:26.828Z,1019.77
2017-04-09T11:41:26.800Z,1019.81
2017-04-09T11:42:26.705Z,1019.79
2017-04-09T11:43:26.641Z,1019.73
2017-04-09T11:44:26.581Z,1019.77
2017-04-09T11:45:26.516Z,1019.75
2017-04-09T11:46:26.454Z,1019.78
2017-04-09T11:47:26.394Z,1019.78
2017-04-09T11:48:26.329Z,1019.76
2017-04-09T11:49:26.267Z,1019.74
2017-04-09T11:50:26.206Z,1019.75
2017-04-09T11:51:26.144Z,1019.73
2017-04-09T11:52:26.080Z,1019.72
2017-04-09T11:53:26.020Z,1019.69
2017-04-09T11:54:25.957Z,1019.68
2017-04-09T11:55:25.895Z,1019.68
2017-04-09T11:56:25.831Z,1019.68
2017-04-09T11:57:25.769Z,1019.69
2017-04-09T11:58:25.707Z,1019.68
2017-04-09T11:59:25.643Z,1019.66
2017-04-09T12:00:25.583Z,1019.65
2017-04-09T12:01:25.519Z,1019.65
2017-04-09T12:02:25.458Z,1019.67
2017-04-09T12:03:25.394Z,1019.68
2017-04-09T12:04:25.334Z,1019.67
2017-04-09T12:05:25.270Z,1019.64
2017-04-09T12:06:25.209Z,1019.67
2017-04-09T12:07:25.144Z,1019.63
2017-04-09T12:08:25.083Z,1019.62